sensor_id;sensor_type;location;lat;lon;timestamp;P1;durP1;ratioP1;P2;durP2;ratioP2
29370;SDS011;16357;52.188;7.838;2023-12-29T00:01:23;6.63;;;1.67;;
29370;SDS011;16357;52.188;7.838;2023-12-29T00:03:49;4.80;;;1.55;;
29370;SDS011;16357;52.188;7.838;2023-12-29T00:06:16;5.50;;;1.90;;
29370;SDS011;16357;52.188;7.838;2023-12-29T00:08:42;6.15;;;1.77;;
29370;SDS011;16357;52.188;7.838;2023-12-29T00:11:15;7.85;;;2.28;;
29370;SDS011;16357;52.188;7.838;2023-12-29T00:13:43;11.13;;;2.17;;
29370;SDS011;16357;52.188;7.838;2023-12-29T00:16:10;6.20;;;1.75;;
29370;SDS011;16357;52.188;7.838;2023-12-29T00:18:37;8.15;;;2.40;;
29370;SDS011;16357;52.188;7.838;2023-12-29T00:21:04;7.10;;;1.67;;
29370;SDS011;16357;52.188;7.838;2023-12-29T00:23:33;8.40;;;2.38;;
29370;SDS011;16357;52.188;7.838;2023-12-29T00:25:59;7.15;;;1.92;;
29370;SDS011;16357;52.188;7.838;2023-12-29T00:28:26;8.25;;;1.70;;
29370;SDS011;16357;52.188;7.838;2023-12-29T00:30:52;7.43;;;2.08;;
29370;SDS011;16357;52.188;7.838;2023-12-29T00:33:28;9.88;;;1.90;;
29370;SDS011;16357;52.188;7.838;2023-12-29T00:35:55;13.45;;;2.10;;
29370;SDS011;16357;52.188;7.838;2023-12-29T00:38:22;7.60;;;1.77;;
29370;SDS011;16357;52.188;7.838;2023-12-29T00:40:48;6.85;;;2.22;;
29370;SDS011;16357;52.188;7.838;2023-12-29T00:43:15;6.88;;;1.88;;
29370;SDS011;16357;52.188;7.838;2023-12-29T00:45:41;5.22;;;2.00;;
29370;SDS011;16357;52.188;7.838;2023-12-29T00:48:08;6.85;;;2.05;;
29370;SDS011;16357;52.188;7.838;2023-12-29T00:50:35;5.53;;;2.00;;
29370;SDS011;16357;52.188;7.838;2023-12-29T00:53:02;4.90;;;1.67;;
29370;SDS011;16357;52.188;7.838;2023-12-29T00:55:28;7.28;;;1.92;;
29370;SDS011;16357;52.188;7.838;2023-12-29T00:57:55;5.28;;;1.60;;
29370;SDS011;16357;52.188;7.838;2023-12-29T01:00:22;9.52;;;1.92;;
29370;SDS011;16357;52.188;7.838;2023-12-29T01:02:48;9.27;;;2.55;;
29370;SDS011;16357;52.188;7.838;2023-12-29T01:05:16;7.68;;;2.17;;
29370;SDS011;16357;52.188;7.838;2023-12-29T01:07:43;7.50;;;1.90;;
29370;SDS011;16357;52.188;7.838;2023-12-29T01:10:10;5.53;;;1.70;;
29370;SDS011;16357;52.188;7.838;2023-12-29T01:12:37;6.22;;;1.70;;
29370;SDS011;16357;52.188;7.838;2023-12-29T01:15:03;7.82;;;2.47;;
29370;SDS011;16357;52.188;7.838;2023-12-29T01:17:30;14.15;;;2.78;;
29370;SDS011;16357;52.188;7.838;2023-12-29T01:19:57;7.25;;;2.20;;
29370;SDS011;16357;52.188;7.838;2023-12-29T01:22:23;6.63;;;1.90;;
29370;SDS011;16357;52.188;7.838;2023-12-29T01:24:50;8.65;;;2.17;;
29370;SDS011;16357;52.188;7.838;2023-12-29T01:27:16;7.30;;;1.80;;
29370;SDS011;16357;52.188;7.838;2023-12-29T01:29:43;6.18;;;1.88;;
29370;SDS011;16357;52.188;7.838;2023-12-29T01:32:10;6.28;;;1.80;;
29370;SDS011;16357;52.188;7.838;2023-12-29T01:34:37;9.95;;;2.63;;
29370;SDS011;16357;52.188;7.838;2023-12-29T01:37:03;7.78;;;2.20;;
29370;SDS011;16357;52.188;7.838;2023-12-29T01:39:30;6.78;;;1.60;;
29370;SDS011;16357;52.188;7.838;2023-12-29T01:41:57;10.15;;;2.30;;
29370;SDS011;16357;52.188;7.838;2023-12-29T01:44:23;5.03;;;1.40;;
29370;SDS011;16357;52.188;7.838;2023-12-29T01:46:51;9.25;;;1.83;;
29370;SDS011;16357;52.188;7.838;2023-12-29T01:49:20;7.70;;;1.70;;
29370;SDS011;16357;52.188;7.838;2023-12-29T01:51:49;4.95;;;1.80;;
29370;SDS011;16357;52.188;7.838;2023-12-29T01:54:19;10.90;;;2.17;;
29370;SDS011;16357;52.188;7.838;2023-12-29T01:56:47;5.90;;;1.70;;
29370;SDS011;16357;52.188;7.838;2023-12-29T01:59:16;5.18;;;1.52;;
29370;SDS011;16357;52.188;7.838;2023-12-29T02:01:51;6.25;;;2.00;;
29370;SDS011;16357;52.188;7.838;2023-12-29T02:04:20;7.35;;;1.75;;
29370;SDS011;16357;52.188;7.838;2023-12-29T02:06:46;5.63;;;1.73;;
29370;SDS011;16357;52.188;7.838;2023-12-29T02:09:13;7.80;;;1.80;;
29370;SDS011;16357;52.188;7.838;2023-12-29T02:11:42;11.90;;;2.10;;
29370;SDS011;16357;52.188;7.838;2023-12-29T02:14:08;6.20;;;1.63;;
29370;SDS011;16357;52.188;7.838;2023-12-29T02:16:40;5.30;;;1.60;;
29370;SDS011;16357;52.188;7.838;2023-12-29T02:19:16;4.93;;;1.60;;
29370;SDS011;16357;52.188;7.838;2023-12-29T02:21:51;5.22;;;1.85;;
29370;SDS011;16357;52.188;7.838;2023-12-29T02:24:17;5.68;;;1.75;;
29370;SDS011;16357;52.188;7.838;2023-12-29T02:26:44;6.28;;;1.98;;
29370;SDS011;16357;52.188;7.838;2023-12-29T02:29:17;5.10;;;1.65;;
29370;SDS011;16357;52.188;7.838;2023-12-29T02:31:48;5.55;;;1.55;;
29370;SDS011;16357;52.188;7.838;2023-12-29T02:34:19;3.50;;;1.30;;
29370;SDS011;16357;52.188;7.838;2023-12-29T02:36:48;5.25;;;1.65;;
29370;SDS011;16357;52.188;7.838;2023-12-29T02:39:16;6.10;;;1.55;;
29370;SDS011;16357;52.188;7.838;2023-12-29T02:41:43;5.38;;;1.35;;
29370;SDS011;16357;52.188;7.838;2023-12-29T02:44:11;8.93;;;2.03;;
29370;SDS011;16357;52.188;7.838;2023-12-29T02:46:38;6.00;;;1.60;;
29370;SDS011;16357;52.188;7.838;2023-12-29T02:49:04;6.07;;;1.70;;
29370;SDS011;16357;52.188;7.838;2023-12-29T02:51:31;5.78;;;1.58;;
29370;SDS011;16357;52.188;7.838;2023-12-29T02:53:57;5.63;;;1.35;;
29370;SDS011;16357;52.188;7.838;2023-12-29T02:56:24;3.80;;;1.17;;
29370;SDS011;16357;52.188;7.838;2023-12-29T02:58:50;4.72;;;1.83;;
29370;SDS011;16357;52.188;7.838;2023-12-29T03:01:17;8.07;;;1.80;;
29370;SDS011;16357;52.188;7.838;2023-12-29T03:03:44;4.80;;;2.08;;
29370;SDS011;16357;52.188;7.838;2023-12-29T03:06:11;7.07;;;1.95;;
29370;SDS011;16357;52.188;7.838;2023-12-29T03:08:37;7.18;;;2.15;;
29370;SDS011;16357;52.188;7.838;2023-12-29T03:11:04;6.88;;;1.85;;
29370;SDS011;16357;52.188;7.838;2023-12-29T03:13:30;7.97;;;1.83;;
29370;SDS011;16357;52.188;7.838;2023-12-29T03:15:56;9.25;;;2.00;;
29370;SDS011;16357;52.188;7.838;2023-12-29T03:18:23;7.03;;;1.83;;
29370;SDS011;16357;52.188;7.838;2023-12-29T03:20:49;10.65;;;2.70;;
29370;SDS011;16357;52.188;7.838;2023-12-29T03:23:16;5.70;;;1.50;;
29370;SDS011;16357;52.188;7.838;2023-12-29T03:25:43;4.15;;;1.60;;
29370;SDS011;16357;52.188;7.838;2023-12-29T03:28:09;5.50;;;1.60;;
29370;SDS011;16357;52.188;7.838;2023-12-29T03:30:36;5.50;;;2.28;;
29370;SDS011;16357;52.188;7.838;2023-12-29T03:33:03;5.28;;;1.67;;
29370;SDS011;16357;52.188;7.838;2023-12-29T03:35:32;6.95;;;1.70;;
29370;SDS011;16357;52.188;7.838;2023-12-29T03:37:58;3.10;;;1.70;;
29370;SDS011;16357;52.188;7.838;2023-12-29T03:40:25;6.85;;;1.92;;
29370;SDS011;16357;52.188;7.838;2023-12-29T03:42:52;6.20;;;1.65;;
29370;SDS011;16357;52.188;7.838;2023-12-29T03:45:18;4.55;;;2.08;;
29370;SDS011;16357;52.188;7.838;2023-12-29T03:47:45;3.55;;;1.33;;
29370;SDS011;16357;52.188;7.838;2023-12-29T03:50:11;5.25;;;1.77;;
29370;SDS011;16357;52.188;7.838;2023-12-29T03:52:38;6.38;;;1.73;;
29370;SDS011;16357;52.188;7.838;2023-12-29T03:55:05;4.28;;;1.63;;
29370;SDS011;16357;52.188;7.838;2023-12-29T03:57:32;7.80;;;1.50;;
29370;SDS011;16357;52.188;7.838;2023-12-29T03:59:58;5.00;;;1.55;;
29370;SDS011;16357;52.188;7.838;2023-12-29T04:02:25;5.10;;;1.67;;
29370;SDS011;16357;52.188;7.838;2023-12-29T04:04:52;3.60;;;1.52;;
29370;SDS011;16357;52.188;7.838;2023-12-29T04:07:18;3.55;;;1.27;;
29370;SDS011;16357;52.188;7.838;2023-12-29T04:09:45;7.68;;;1.80;;
29370;SDS011;16357;52.188;7.838;2023-12-29T04:12:11;4.65;;;1.42;;
29370;SDS011;16357;52.188;7.838;2023-12-29T04:14:38;4.07;;;1.83;;
29370;SDS011;16357;52.188;7.838;2023-12-29T04:17:04;3.88;;;1.40;;
29370;SDS011;16357;52.188;7.838;2023-12-29T04:19:40;6.22;;;1.95;;
29370;SDS011;16357;52.188;7.838;2023-12-29T04:22:07;6.13;;;1.63;;
29370;SDS011;16357;52.188;7.838;2023-12-29T04:24:34;6.45;;;1.92;;
29370;SDS011;16357;52.188;7.838;2023-12-29T04:27:03;7.03;;;1.77;;
29370;SDS011;16357;52.188;7.838;2023-12-29T04:29:30;7.03;;;1.88;;
29370;SDS011;16357;52.188;7.838;2023-12-29T04:31:56;6.45;;;1.65;;
29370;SDS011;16357;52.188;7.838;2023-12-29T04:34:22;9.20;;;1.75;;
29370;SDS011;16357;52.188;7.838;2023-12-29T04:36:49;6.97;;;1.83;;
29370;SDS011;16357;52.188;7.838;2023-12-29T04:39:16;6.80;;;2.05;;
29370;SDS011;16357;52.188;7.838;2023-12-29T04:41:42;8.52;;;2.20;;
29370;SDS011;16357;52.188;7.838;2023-12-29T04:44:09;8.50;;;1.92;;
29370;SDS011;16357;52.188;7.838;2023-12-29T04:46:36;9.45;;;2.20;;
29370;SDS011;16357;52.188;7.838;2023-12-29T04:49:02;9.05;;;2.40;;
29370;SDS011;16357;52.188;7.838;2023-12-29T04:51:29;8.73;;;2.10;;
29370;SDS011;16357;52.188;7.838;2023-12-29T04:53:55;7.03;;;1.90;;
29370;SDS011;16357;52.188;7.838;2023-12-29T04:56:22;7.90;;;1.92;;
29370;SDS011;16357;52.188;7.838;2023-12-29T04:58:48;11.02;;;2.00;;
29370;SDS011;16357;52.188;7.838;2023-12-29T05:01:17;8.95;;;2.33;;
29370;SDS011;16357;52.188;7.838;2023-12-29T05:03:43;7.20;;;1.80;;
29370;SDS011;16357;52.188;7.838;2023-12-29T05:06:10;10.57;;;2.47;;
29370;SDS011;16357;52.188;7.838;2023-12-29T05:08:36;7.18;;;2.10;;
29370;SDS011;16357;52.188;7.838;2023-12-29T05:11:03;7.90;;;1.88;;
29370;SDS011;16357;52.188;7.838;2023-12-29T05:13:29;7.00;;;2.03;;
29370;SDS011;16357;52.188;7.838;2023-12-29T05:15:56;5.07;;;1.70;;
29370;SDS011;16357;52.188;7.838;2023-12-29T05:18:22;6.60;;;2.35;;
29370;SDS011;16357;52.188;7.838;2023-12-29T05:20:49;12.20;;;1.98;;
29370;SDS011;16357;52.188;7.838;2023-12-29T05:23:15;7.72;;;1.88;;
29370;SDS011;16357;52.188;7.838;2023-12-29T05:25:42;7.57;;;2.15;;
29370;SDS011;16357;52.188;7.838;2023-12-29T05:28:08;8.60;;;2.25;;
29370;SDS011;16357;52.188;7.838;2023-12-29T05:30:35;10.93;;;2.35;;
29370;SDS011;16357;52.188;7.838;2023-12-29T05:33:01;10.27;;;2.60;;
29370;SDS011;16357;52.188;7.838;2023-12-29T05:35:28;8.15;;;2.17;;
29370;SDS011;16357;52.188;7.838;2023-12-29T05:37:54;6.97;;;2.15;;
29370;SDS011;16357;52.188;7.838;2023-12-29T05:40:21;5.63;;;1.80;;
29370;SDS011;16357;52.188;7.838;2023-12-29T05:42:47;12.07;;;2.47;;
29370;SDS011;16357;52.188;7.838;2023-12-29T05:45:15;8.07;;;2.10;;
29370;SDS011;16357;52.188;7.838;2023-12-29T05:47:43;9.43;;;2.30;;
29370;SDS011;16357;52.188;7.838;2023-12-29T05:50:09;8.90;;;2.20;;
29370;SDS011;16357;52.188;7.838;2023-12-29T05:52:36;7.53;;;2.03;;
29370;SDS011;16357;52.188;7.838;2023-12-29T05:55:02;8.57;;;2.45;;
29370;SDS011;16357;52.188;7.838;2023-12-29T05:57:29;10.45;;;2.50;;
29370;SDS011;16357;52.188;7.838;2023-12-29T05:59:56;9.30;;;2.08;;
29370;SDS011;16357;52.188;7.838;2023-12-29T06:02:23;11.25;;;2.30;;
29370;SDS011;16357;52.188;7.838;2023-12-29T06:04:49;9.40;;;2.20;;
29370;SDS011;16357;52.188;7.838;2023-12-29T06:07:16;10.07;;;2.42;;
29370;SDS011;16357;52.188;7.838;2023-12-29T06:09:42;10.15;;;2.53;;
29370;SDS011;16357;52.188;7.838;2023-12-29T06:12:09;5.93;;;1.95;;
29370;SDS011;16357;52.188;7.838;2023-12-29T06:14:36;11.52;;;2.38;;
29370;SDS011;16357;52.188;7.838;2023-12-29T06:17:02;10.18;;;2.65;;
29370;SDS011;16357;52.188;7.838;2023-12-29T06:19:29;7.60;;;2.22;;
29370;SDS011;16357;52.188;7.838;2023-12-29T06:21:58;8.30;;;1.90;;
29370;SDS011;16357;52.188;7.838;2023-12-29T06:24:25;8.20;;;2.00;;
29370;SDS011;16357;52.188;7.838;2023-12-29T06:26:51;10.57;;;2.45;;
29370;SDS011;16357;52.188;7.838;2023-12-29T06:29:17;11.82;;;2.55;;
29370;SDS011;16357;52.188;7.838;2023-12-29T06:31:44;11.25;;;2.38;;
29370;SDS011;16357;52.188;7.838;2023-12-29T06:34:11;9.25;;;2.17;;
29370;SDS011;16357;52.188;7.838;2023-12-29T06:36:37;11.20;;;2.38;;
29370;SDS011;16357;52.188;7.838;2023-12-29T06:39:04;10.38;;;2.42;;
29370;SDS011;16357;52.188;7.838;2023-12-29T06:41:30;7.60;;;2.00;;
29370;SDS011;16357;52.188;7.838;2023-12-29T06:43:58;10.15;;;2.50;;
29370;SDS011;16357;52.188;7.838;2023-12-29T06:46:24;13.57;;;2.28;;
29370;SDS011;16357;52.188;7.838;2023-12-29T06:48:51;8.43;;;2.45;;
29370;SDS011;16357;52.188;7.838;2023-12-29T06:51:18;9.27;;;2.20;;
29370;SDS011;16357;52.188;7.838;2023-12-29T06:53:45;7.85;;;2.33;;
29370;SDS011;16357;52.188;7.838;2023-12-29T06:56:16;8.30;;;1.98;;
29370;SDS011;16357;52.188;7.838;2023-12-29T06:58:44;11.63;;;2.08;;
29370;SDS011;16357;52.188;7.838;2023-12-29T07:01:11;8.43;;;1.88;;
29370;SDS011;16357;52.188;7.838;2023-12-29T07:03:37;8.02;;;2.03;;
29370;SDS011;16357;52.188;7.838;2023-12-29T07:06:04;11.50;;;2.90;;
29370;SDS011;16357;52.188;7.838;2023-12-29T07:08:31;6.93;;;1.83;;
29370;SDS011;16357;52.188;7.838;2023-12-29T07:10:58;8.30;;;2.00;;
29370;SDS011;16357;52.188;7.838;2023-12-29T07:13:24;15.20;;;2.40;;
29370;SDS011;16357;52.188;7.838;2023-12-29T07:15:51;9.02;;;1.98;;
29370;SDS011;16357;52.188;7.838;2023-12-29T07:18:17;9.30;;;2.50;;
29370;SDS011;16357;52.188;7.838;2023-12-29T07:20:44;7.40;;;2.28;;
29370;SDS011;16357;52.188;7.838;2023-12-29T07:23:10;10.23;;;2.40;;
29370;SDS011;16357;52.188;7.838;2023-12-29T07:25:37;8.05;;;2.67;;
29370;SDS011;16357;52.188;7.838;2023-12-29T07:28:03;7.53;;;1.80;;
29370;SDS011;16357;52.188;7.838;2023-12-29T07:30:30;11.85;;;2.90;;
29370;SDS011;16357;52.188;7.838;2023-12-29T07:32:57;10.18;;;2.15;;
29370;SDS011;16357;52.188;7.838;2023-12-29T07:35:24;9.95;;;2.33;;
29370;SDS011;16357;52.188;7.838;2023-12-29T07:37:50;10.77;;;2.47;;
29370;SDS011;16357;52.188;7.838;2023-12-29T07:40:17;8.50;;;2.17;;
29370;SDS011;16357;52.188;7.838;2023-12-29T07:42:44;10.65;;;2.35;;
29370;SDS011;16357;52.188;7.838;2023-12-29T07:45:13;5.72;;;1.90;;
29370;SDS011;16357;52.188;7.838;2023-12-29T07:47:39;8.73;;;1.83;;
29370;SDS011;16357;52.188;7.838;2023-12-29T07:50:06;12.65;;;2.38;;
29370;SDS011;16357;52.188;7.838;2023-12-29T07:52:32;9.70;;;1.90;;
29370;SDS011;16357;52.188;7.838;2023-12-29T07:54:59;9.93;;;2.33;;
29370;SDS011;16357;52.188;7.838;2023-12-29T07:57:26;8.95;;;1.90;;
29370;SDS011;16357;52.188;7.838;2023-12-29T07:59:52;6.53;;;1.90;;
29370;SDS011;16357;52.188;7.838;2023-12-29T08:02:18;9.30;;;1.98;;
29370;SDS011;16357;52.188;7.838;2023-12-29T08:04:45;6.53;;;1.73;;
29370;SDS011;16357;52.188;7.838;2023-12-29T08:07:14;11.38;;;2.17;;
29370;SDS011;16357;52.188;7.838;2023-12-29T08:09:41;6.18;;;1.73;;
29370;SDS011;16357;52.188;7.838;2023-12-29T08:12:07;8.70;;;2.08;;
29370;SDS011;16357;52.188;7.838;2023-12-29T08:14:34;6.72;;;1.55;;
29370;SDS011;16357;52.188;7.838;2023-12-29T08:17:00;7.45;;;1.80;;
29370;SDS011;16357;52.188;7.838;2023-12-29T08:19:27;6.88;;;1.80;;
29370;SDS011;16357;52.188;7.838;2023-12-29T08:21:54;6.65;;;2.15;;
29370;SDS011;16357;52.188;7.838;2023-12-29T08:24:20;10.02;;;2.10;;
29370;SDS011;16357;52.188;7.838;2023-12-29T08:26:47;9.93;;;2.10;;
29370;SDS011;16357;52.188;7.838;2023-12-29T08:29:14;8.27;;;1.75;;
29370;SDS011;16357;52.188;7.838;2023-12-29T08:31:41;9.90;;;1.65;;
29370;SDS011;16357;52.188;7.838;2023-12-29T08:34:09;5.68;;;1.73;;
29370;SDS011;16357;52.188;7.838;2023-12-29T08:36:36;5.60;;;1.58;;
29370;SDS011;16357;52.188;7.838;2023-12-29T08:39:02;6.68;;;1.90;;
29370;SDS011;16357;52.188;7.838;2023-12-29T08:41:29;4.68;;;1.30;;
29370;SDS011;16357;52.188;7.838;2023-12-29T08:43:55;6.85;;;1.83;;
29370;SDS011;16357;52.188;7.838;2023-12-29T08:46:22;6.18;;;1.58;;
29370;SDS011;16357;52.188;7.838;2023-12-29T08:48:49;6.00;;;1.60;;
29370;SDS011;16357;52.188;7.838;2023-12-29T08:51:15;8.68;;;1.70;;
29370;SDS011;16357;52.188;7.838;2023-12-29T08:53:42;3.97;;;1.48;;
29370;SDS011;16357;52.188;7.838;2023-12-29T08:56:08;11.10;;;2.05;;
29370;SDS011;16357;52.188;7.838;2023-12-29T08:58:35;7.07;;;1.65;;
29370;SDS011;16357;52.188;7.838;2023-12-29T09:01:01;7.20;;;1.75;;
29370;SDS011;16357;52.188;7.838;2023-12-29T09:03:28;3.85;;;1.35;;
29370;SDS011;16357;52.188;7.838;2023-12-29T09:05:55;5.28;;;1.40;;
29370;SDS011;16357;52.188;7.838;2023-12-29T09:08:23;4.47;;;1.38;;
29370;SDS011;16357;52.188;7.838;2023-12-29T09:10:49;6.47;;;1.88;;
29370;SDS011;16357;52.188;7.838;2023-12-29T09:13:16;7.32;;;1.95;;
29370;SDS011;16357;52.188;7.838;2023-12-29T09:15:44;8.45;;;2.17;;
29370;SDS011;16357;52.188;7.838;2023-12-29T09:18:11;8.05;;;2.08;;
29370;SDS011;16357;52.188;7.838;2023-12-29T09:20:38;8.60;;;2.05;;
29370;SDS011;16357;52.188;7.838;2023-12-29T09:23:05;7.55;;;2.25;;
29370;SDS011;16357;52.188;7.838;2023-12-29T09:25:32;6.38;;;1.80;;
29370;SDS011;16357;52.188;7.838;2023-12-29T09:27:58;8.93;;;2.00;;
29370;SDS011;16357;52.188;7.838;2023-12-29T09:30:25;6.05;;;1.92;;
29370;SDS011;16357;52.188;7.838;2023-12-29T09:32:52;5.40;;;2.22;;
29370;SDS011;16357;52.188;7.838;2023-12-29T09:35:18;4.97;;;1.60;;
29370;SDS011;16357;52.188;7.838;2023-12-29T09:37:49;7.07;;;1.90;;
29370;SDS011;16357;52.188;7.838;2023-12-29T09:40:16;7.40;;;2.20;;
29370;SDS011;16357;52.188;7.838;2023-12-29T09:42:43;10.27;;;1.95;;
29370;SDS011;16357;52.188;7.838;2023-12-29T09:45:13;4.93;;;1.42;;
29370;SDS011;16357;52.188;7.838;2023-12-29T09:47:41;7.95;;;1.85;;
29370;SDS011;16357;52.188;7.838;2023-12-29T09:50:12;6.35;;;2.00;;
29370;SDS011;16357;52.188;7.838;2023-12-29T09:52:39;4.05;;;1.48;;
29370;SDS011;16357;52.188;7.838;2023-12-29T09:55:10;5.72;;;2.05;;
29370;SDS011;16357;52.188;7.838;2023-12-29T09:57:37;4.53;;;1.92;;
29370;SDS011;16357;52.188;7.838;2023-12-29T10:00:05;3.53;;;1.30;;
29370;SDS011;16357;52.188;7.838;2023-12-29T10:02:36;4.45;;;1.50;;
29370;SDS011;16357;52.188;7.838;2023-12-29T10:05:03;4.32;;;1.50;;
29370;SDS011;16357;52.188;7.838;2023-12-29T10:07:37;5.22;;;1.42;;
29370;SDS011;16357;52.188;7.838;2023-12-29T10:10:05;6.20;;;1.80;;
29370;SDS011;16357;52.188;7.838;2023-12-29T10:12:33;3.47;;;1.30;;
29370;SDS011;16357;52.188;7.838;2023-12-29T10:15:08;6.93;;;1.60;;
29370;SDS011;16357;52.188;7.838;2023-12-29T10:23:17;5.35;;;1.25;;
29370;SDS011;16357;52.188;7.838;2023-12-29T10:25:47;4.75;;;1.23;;
29370;SDS011;16357;52.188;7.838;2023-12-29T10:28:14;4.20;;;1.42;;
29370;SDS011;16357;52.188;7.838;2023-12-29T10:30:43;8.32;;;1.35;;
29370;SDS011;16357;52.188;7.838;2023-12-29T10:33:10;6.20;;;1.52;;
29370;SDS011;16357;52.188;7.838;2023-12-29T10:35:37;4.47;;;1.20;;
29370;SDS011;16357;52.188;7.838;2023-12-29T10:38:11;3.10;;;1.42;;
29370;SDS011;16357;52.188;7.838;2023-12-29T10:40:39;3.80;;;1.30;;
29370;SDS011;16357;52.188;7.838;2023-12-29T10:43:06;4.80;;;1.33;;
29370;SDS011;16357;52.188;7.838;2023-12-29T10:45:34;5.18;;;1.33;;
29370;SDS011;16357;52.188;7.838;2023-12-29T10:48:04;4.45;;;1.10;;
29370;SDS011;16357;52.188;7.838;2023-12-29T10:50:42;3.60;;;1.25;;
29370;SDS011;16357;52.188;7.838;2023-12-29T10:53:10;3.35;;;1.00;;
29370;SDS011;16357;52.188;7.838;2023-12-29T10:55:38;7.63;;;1.30;;
29370;SDS011;16357;52.188;7.838;2023-12-29T10:58:05;4.43;;;1.27;;
29370;SDS011;16357;52.188;7.838;2023-12-29T11:00:32;4.18;;;1.00;;
29370;SDS011;16357;52.188;7.838;2023-12-29T11:02:59;4.97;;;1.33;;
29370;SDS011;16357;52.188;7.838;2023-12-29T11:05:26;2.63;;;1.25;;
29370;SDS011;16357;52.188;7.838;2023-12-29T11:07:54;4.45;;;1.40;;
29370;SDS011;16357;52.188;7.838;2023-12-29T11:10:21;4.78;;;1.17;;
29370;SDS011;16357;52.188;7.838;2023-12-29T11:12:48;1.85;;;1.05;;
29370;SDS011;16357;52.188;7.838;2023-12-29T11:15:16;2.58;;;1.10;;
29370;SDS011;16357;52.188;7.838;2023-12-29T11:17:43;3.95;;;1.02;;
29370;SDS011;16357;52.188;7.838;2023-12-29T11:20:16;4.00;;;1.17;;
29370;SDS011;16357;52.188;7.838;2023-12-29T11:22:43;2.55;;;0.98;;
29370;SDS011;16357;52.188;7.838;2023-12-29T11:25:12;2.20;;;1.10;;
29370;SDS011;16357;52.188;7.838;2023-12-29T11:27:39;1.67;;;0.80;;
29370;SDS011;16357;52.188;7.838;2023-12-29T11:30:07;2.95;;;0.90;;
29370;SDS011;16357;52.188;7.838;2023-12-29T11:32:45;1.90;;;0.73;;
29370;SDS011;16357;52.188;7.838;2023-12-29T11:35:18;1.67;;;0.70;;
29370;SDS011;16357;52.188;7.838;2023-12-29T11:40:41;2.42;;;0.93;;
29370;SDS011;16357;52.188;7.838;2023-12-29T11:43:17;3.38;;;1.10;;
29370;SDS011;16357;52.188;7.838;2023-12-29T11:45:45;1.90;;;0.80;;
29370;SDS011;16357;52.188;7.838;2023-12-29T11:48:11;2.47;;;0.90;;
29370;SDS011;16357;52.188;7.838;2023-12-29T11:50:39;1.67;;;0.90;;
29370;SDS011;16357;52.188;7.838;2023-12-29T11:53:07;2.55;;;0.82;;
29370;SDS011;16357;52.188;7.838;2023-12-29T11:55:37;2.00;;;0.82;;
29370;SDS011;16357;52.188;7.838;2023-12-29T12:00:50;0.80;;;0.60;;
29370;SDS011;16357;52.188;7.838;2023-12-29T12:03:24;1.38;;;0.70;;
29370;SDS011;16357;52.188;7.838;2023-12-29T12:05:53;1.40;;;0.77;;
29370;SDS011;16357;52.188;7.838;2023-12-29T12:08:26;1.38;;;0.70;;
29370;SDS011;16357;52.188;7.838;2023-12-29T12:10:56;1.30;;;0.65;;
29370;SDS011;16357;52.188;7.838;2023-12-29T12:13:42;2.45;;;0.65;;
29370;SDS011;16357;52.188;7.838;2023-12-29T12:19:16;2.80;;;0.75;;
29370;SDS011;16357;52.188;7.838;2023-12-29T12:21:45;0.43;;;0.40;;
29370;SDS011;16357;52.188;7.838;2023-12-29T12:24:18;1.35;;;0.80;;
29370;SDS011;16357;52.188;7.838;2023-12-29T12:26:44;2.05;;;0.63;;
29370;SDS011;16357;52.188;7.838;2023-12-29T12:29:12;2.20;;;0.80;;
29370;SDS011;16357;52.188;7.838;2023-12-29T12:31:51;1.73;;;0.80;;
29370;SDS011;16357;52.188;7.838;2023-12-29T12:34:19;1.92;;;0.85;;
29370;SDS011;16357;52.188;7.838;2023-12-29T12:36:51;2.25;;;0.82;;
29370;SDS011;16357;52.188;7.838;2023-12-29T12:39:18;2.80;;;0.90;;
29370;SDS011;16357;52.188;7.838;2023-12-29T12:41:45;2.67;;;0.90;;
29370;SDS011;16357;52.188;7.838;2023-12-29T12:44:15;1.92;;;0.70;;
29370;SDS011;16357;52.188;7.838;2023-12-29T12:49:14;2.08;;;0.73;;
29370;SDS011;16357;52.188;7.838;2023-12-29T12:51:42;3.30;;;0.93;;
29370;SDS011;16357;52.188;7.838;2023-12-29T12:54:09;2.63;;;0.95;;
29370;SDS011;16357;52.188;7.838;2023-12-29T12:56:37;1.98;;;1.00;;
29370;SDS011;16357;52.188;7.838;2023-12-29T12:59:04;3.03;;;0.93;;
29370;SDS011;16357;52.188;7.838;2023-12-29T13:01:34;1.88;;;0.80;;
29370;SDS011;16357;52.188;7.838;2023-12-29T13:04:03;2.67;;;1.05;;
29370;SDS011;16357;52.188;7.838;2023-12-29T13:06:33;3.65;;;0.98;;
29370;SDS011;16357;52.188;7.838;2023-12-29T13:09:05;2.17;;;0.77;;
29370;SDS011;16357;52.188;7.838;2023-12-29T13:11:37;3.15;;;0.98;;
29370;SDS011;16357;52.188;7.838;2023-12-29T13:14:04;3.65;;;0.98;;
29370;SDS011;16357;52.188;7.838;2023-12-29T13:16:35;2.78;;;1.13;;
29370;SDS011;16357;52.188;7.838;2023-12-29T13:19:21;3.47;;;1.08;;
29370;SDS011;16357;52.188;7.838;2023-12-29T13:21:52;3.80;;;0.95;;
29370;SDS011;16357;52.188;7.838;2023-12-29T13:24:23;2.63;;;1.00;;
29370;SDS011;16357;52.188;7.838;2023-12-29T13:26:52;3.63;;;1.05;;
29370;SDS011;16357;52.188;7.838;2023-12-29T13:29:23;2.00;;;1.00;;
29370;SDS011;16357;52.188;7.838;2023-12-29T13:31:52;3.28;;;1.17;;
29370;SDS011;16357;52.188;7.838;2023-12-29T13:34:21;2.03;;;0.88;;
29370;SDS011;16357;52.188;7.838;2023-12-29T13:37:01;3.33;;;1.33;;
29370;SDS011;16357;52.188;7.838;2023-12-29T13:39:34;4.30;;;1.20;;
29370;SDS011;16357;52.188;7.838;2023-12-29T13:42:06;3.30;;;1.05;;
29370;SDS011;16357;52.188;7.838;2023-12-29T13:44:35;2.65;;;1.13;;
29370;SDS011;16357;52.188;7.838;2023-12-29T13:47:05;2.20;;;1.00;;
29370;SDS011;16357;52.188;7.838;2023-12-29T13:49:32;7.40;;;1.27;;
29370;SDS011;16357;52.188;7.838;2023-12-29T13:52:03;2.40;;;0.90;;
29370;SDS011;16357;52.188;7.838;2023-12-29T13:54:30;3.85;;;1.45;;
29370;SDS011;16357;52.188;7.838;2023-12-29T13:56:57;4.07;;;1.25;;
29370;SDS011;16357;52.188;7.838;2023-12-29T13:59:30;3.65;;;1.50;;
29370;SDS011;16357;52.188;7.838;2023-12-29T14:02:03;5.30;;;1.30;;
29370;SDS011;16357;52.188;7.838;2023-12-29T14:05:14;3.28;;;1.40;;
29370;SDS011;16357;52.188;7.838;2023-12-29T14:07:46;4.43;;;1.23;;
29370;SDS011;16357;52.188;7.838;2023-12-29T14:10:18;4.60;;;1.27;;
29370;SDS011;16357;52.188;7.838;2023-12-29T14:12:46;6.93;;;1.30;;
29370;SDS011;16357;52.188;7.838;2023-12-29T14:15:16;4.07;;;1.40;;
29370;SDS011;16357;52.188;7.838;2023-12-29T14:17:43;5.55;;;1.40;;
29370;SDS011;16357;52.188;7.838;2023-12-29T14:20:10;4.25;;;1.60;;
29370;SDS011;16357;52.188;7.838;2023-12-29T14:22:37;3.47;;;1.30;;
29370;SDS011;16357;52.188;7.838;2023-12-29T14:25:07;4.20;;;1.48;;
29370;SDS011;16357;52.188;7.838;2023-12-29T14:27:36;3.70;;;1.20;;
29370;SDS011;16357;52.188;7.838;2023-12-29T14:30:17;4.68;;;1.33;;
29370;SDS011;16357;52.188;7.838;2023-12-29T14:32:44;3.42;;;1.10;;
29370;SDS011;16357;52.188;7.838;2023-12-29T14:35:12;4.78;;;1.50;;
29370;SDS011;16357;52.188;7.838;2023-12-29T14:37:38;7.18;;;1.60;;
29370;SDS011;16357;52.188;7.838;2023-12-29T14:40:05;5.53;;;1.33;;
29370;SDS011;16357;52.188;7.838;2023-12-29T14:42:32;3.85;;;1.50;;
29370;SDS011;16357;52.188;7.838;2023-12-29T14:44:59;4.55;;;1.50;;
29370;SDS011;16357;52.188;7.838;2023-12-29T14:47:25;4.88;;;1.20;;
29370;SDS011;16357;52.188;7.838;2023-12-29T14:49:52;7.18;;;1.48;;
29370;SDS011;16357;52.188;7.838;2023-12-29T14:52:18;3.88;;;1.15;;
29370;SDS011;16357;52.188;7.838;2023-12-29T14:54:46;3.58;;;1.20;;
29370;SDS011;16357;52.188;7.838;2023-12-29T14:57:12;3.45;;;1.17;;
29370;SDS011;16357;52.188;7.838;2023-12-29T14:59:46;3.17;;;1.13;;
29370;SDS011;16357;52.188;7.838;2023-12-29T15:02:12;4.45;;;1.45;;
29370;SDS011;16357;52.188;7.838;2023-12-29T15:04:39;5.85;;;1.30;;
29370;SDS011;16357;52.188;7.838;2023-12-29T15:07:05;3.28;;;1.40;;